sensor_id;sensor_type;location;lat;lon;timestamp;P1;durP1;ratioP1;P2;durP2;ratioP2
3066;SDS011;1544;48.834;9.194;2023-09-18T00:01:58;4.13;;;3.83;;
3066;SDS011;1544;48.834;9.194;2023-09-18T00:04:34;3.50;;;3.30;;
3066;SDS011;1544;48.834;9.194;2023-09-18T00:07:10;3.83;;;3.30;;
3066;SDS011;1544;48.834;9.194;2023-09-18T00:09:46;4.67;;;4.27;;
3066;SDS011;1544;48.834;9.194;2023-09-18T00:12:24;3.53;;;3.33;;
3066;SDS011;1544;48.834;9.194;2023-09-18T00:15:00;5.00;;;3.67;;
3066;SDS011;1544;48.834;9.194;2023-09-18T00:17:36;3.57;;;3.37;;
3066;SDS011;1544;48.834;9.194;2023-09-18T00:20:12;3.77;;;3.53;;
3066;SDS011;1544;48.834;9.194;2023-09-18T00:22:48;4.67;;;4.27;;
3066;SDS011;1544;48.834;9.194;2023-09-18T00:25:24;3.93;;;3.70;;
3066;SDS011;1544;48.834;9.194;2023-09-18T00:28:00;3.50;;;3.30;;
3066;SDS011;1544;48.834;9.194;2023-09-18T00:30:37;4.43;;;3.87;;
3066;SDS011;1544;48.834;9.194;2023-09-18T00:33:18;4.67;;;4.27;;
3066;SDS011;1544;48.834;9.194;2023-09-18T00:35:55;7.23;;;4.67;;
3066;SDS011;1544;48.834;9.194;2023-09-18T00:38:31;4.13;;;3.63;;
3066;SDS011;1544;48.834;9.194;2023-09-18T00:41:07;4.53;;;4.13;;
3066;SDS011;1544;48.834;9.194;2023-09-18T00:43:43;4.20;;;4.00;;
3066;SDS011;1544;48.834;9.194;2023-09-18T00:46:19;4.20;;;4.00;;
3066;SDS011;1544;48.834;9.194;2023-09-18T00:48:55;3.70;;;3.40;;
3066;SDS011;1544;48.834;9.194;2023-09-18T00:51:31;3.47;;;3.20;;
3066;SDS011;1544;48.834;9.194;2023-09-18T00:54:08;3.60;;;3.37;;
3066;SDS011;1544;48.834;9.194;2023-09-18T00:56:46;3.77;;;3.33;;
3066;SDS011;1544;48.834;9.194;2023-09-18T00:59:23;4.43;;;4.13;;
3066;SDS011;1544;48.834;9.194;2023-09-18T01:01:59;3.50;;;3.30;;
3066;SDS011;1544;48.834;9.194;2023-09-18T01:04:35;3.83;;;3.53;;
3066;SDS011;1544;48.834;9.194;2023-09-18T01:07:13;3.33;;;3.13;;
3066;SDS011;1544;48.834;9.194;2023-09-18T01:09:49;4.10;;;3.80;;
3066;SDS011;1544;48.834;9.194;2023-09-18T01:15:32;3.80;;;3.60;;
3066;SDS011;1544;48.834;9.194;2023-09-18T01:18:17;4.20;;;3.77;;
3066;SDS011;1544;48.834;9.194;2023-09-18T01:20:53;4.07;;;3.67;;
3066;SDS011;1544;48.834;9.194;2023-09-18T01:23:30;4.27;;;3.97;;
3066;SDS011;1544;48.834;9.194;2023-09-18T01:26:06;4.13;;;3.90;;
3066;SDS011;1544;48.834;9.194;2023-09-18T01:28:42;3.87;;;3.67;;
3066;SDS011;1544;48.834;9.194;2023-09-18T01:31:18;4.03;;;3.73;;
3066;SDS011;1544;48.834;9.194;2023-09-18T01:33:54;5.80;;;3.90;;
3066;SDS011;1544;48.834;9.194;2023-09-18T01:36:32;4.00;;;3.70;;
3066;SDS011;1544;48.834;9.194;2023-09-18T01:39:08;3.53;;;3.30;;
3066;SDS011;1544;48.834;9.194;2023-09-18T01:41:46;3.57;;;3.30;;
3066;SDS011;1544;48.834;9.194;2023-09-18T01:44:23;3.33;;;3.13;;
3066;SDS011;1544;48.834;9.194;2023-09-18T01:46:59;2.63;;;2.53;;
3066;SDS011;1544;48.834;9.194;2023-09-18T01:49:39;3.50;;;3.30;;
3066;SDS011;1544;48.834;9.194;2023-09-18T01:52:16;2.63;;;2.43;;
3066;SDS011;1544;48.834;9.194;2023-09-18T01:54:52;3.03;;;2.87;;
3066;SDS011;1544;48.834;9.194;2023-09-18T01:57:28;2.60;;;2.47;;
3066;SDS011;1544;48.834;9.194;2023-09-18T02:00:05;2.67;;;2.47;;
3066;SDS011;1544;48.834;9.194;2023-09-18T02:02:47;3.07;;;2.43;;
3066;SDS011;1544;48.834;9.194;2023-09-18T02:05:36;2.27;;;2.10;;
3066;SDS011;1544;48.834;9.194;2023-09-18T02:08:13;2.40;;;2.20;;
3066;SDS011;1544;48.834;9.194;2023-09-18T02:10:48;2.40;;;2.20;;
3066;SDS011;1544;48.834;9.194;2023-09-18T02:13:24;2.30;;;2.10;;
3066;SDS011;1544;48.834;9.194;2023-09-18T02:16:00;4.53;;;2.13;;
3066;SDS011;1544;48.834;9.194;2023-09-18T02:18:38;2.30;;;2.10;;
3066;SDS011;1544;48.834;9.194;2023-09-18T02:21:20;2.50;;;2.30;;
3066;SDS011;1544;48.834;9.194;2023-09-18T02:23:57;3.73;;;2.80;;
3066;SDS011;1544;48.834;9.194;2023-09-18T02:26:33;3.90;;;2.77;;
3066;SDS011;1544;48.834;9.194;2023-09-18T02:29:09;2.60;;;2.40;;
3066;SDS011;1544;48.834;9.194;2023-09-18T02:31:50;3.03;;;2.83;;
3066;SDS011;1544;48.834;9.194;2023-09-18T02:34:26;3.07;;;2.87;;
3066;SDS011;1544;48.834;9.194;2023-09-18T02:37:02;3.40;;;2.67;;
3066;SDS011;1544;48.834;9.194;2023-09-18T02:39:38;3.10;;;2.90;;
3066;SDS011;1544;48.834;9.194;2023-09-18T02:42:14;3.17;;;2.77;;
3066;SDS011;1544;48.834;9.194;2023-09-18T02:44:50;4.07;;;2.73;;
3066;SDS011;1544;48.834;9.194;2023-09-18T02:47:26;4.87;;;2.47;;
3066;SDS011;1544;48.834;9.194;2023-09-18T02:50:02;2.37;;;2.17;;
3066;SDS011;1544;48.834;9.194;2023-09-18T02:52:40;3.43;;;2.10;;
3066;SDS011;1544;48.834;9.194;2023-09-18T02:55:17;6.37;;;2.23;;
3066;SDS011;1544;48.834;9.194;2023-09-18T02:57:53;3.73;;;2.10;;
3066;SDS011;1544;48.834;9.194;2023-09-18T03:00:29;6.67;;;2.73;;
3066;SDS011;1544;48.834;9.194;2023-09-18T03:03:18;7.70;;;2.40;;
3066;SDS011;1544;48.834;9.194;2023-09-18T03:06:02;2.50;;;1.80;;
3066;SDS011;1544;48.834;9.194;2023-09-18T03:08:41;4.00;;;1.80;;
3066;SDS011;1544;48.834;9.194;2023-09-18T03:11:18;4.73;;;1.70;;
3066;SDS011;1544;48.834;9.194;2023-09-18T03:13:54;4.53;;;2.27;;
3066;SDS011;1544;48.834;9.194;2023-09-18T03:16:31;4.20;;;1.93;;
3066;SDS011;1544;48.834;9.194;2023-09-18T03:19:08;5.73;;;2.10;;
3066;SDS011;1544;48.834;9.194;2023-09-18T03:21:45;3.80;;;2.20;;
3066;SDS011;1544;48.834;9.194;2023-09-18T03:24:22;3.57;;;2.13;;
3066;SDS011;1544;48.834;9.194;2023-09-18T03:26:58;3.77;;;2.60;;
3066;SDS011;1544;48.834;9.194;2023-09-18T03:29:34;4.20;;;2.00;;
3066;SDS011;1544;48.834;9.194;2023-09-18T03:32:11;3.40;;;2.07;;
3066;SDS011;1544;48.834;9.194;2023-09-18T03:34:52;4.50;;;1.90;;
3066;SDS011;1544;48.834;9.194;2023-09-18T03:37:30;1.83;;;1.73;;
3066;SDS011;1544;48.834;9.194;2023-09-18T03:40:06;3.50;;;1.90;;
3066;SDS011;1544;48.834;9.194;2023-09-18T03:42:44;2.40;;;2.03;;
3066;SDS011;1544;48.834;9.194;2023-09-18T03:45:21;5.00;;;2.00;;
3066;SDS011;1544;48.834;9.194;2023-09-18T03:47:58;8.33;;;2.27;;
3066;SDS011;1544;48.834;9.194;2023-09-18T03:50:34;5.23;;;2.00;;
3066;SDS011;1544;48.834;9.194;2023-09-18T03:53:10;5.37;;;1.80;;
3066;SDS011;1544;48.834;9.194;2023-09-18T03:55:47;6.27;;;2.57;;
3066;SDS011;1544;48.834;9.194;2023-09-18T03:58:24;4.33;;;1.97;;
3066;SDS011;1544;48.834;9.194;2023-09-18T04:01:00;4.23;;;1.97;;
3066;SDS011;1544;48.834;9.194;2023-09-18T04:03:37;2.40;;;1.67;;
3066;SDS011;1544;48.834;9.194;2023-09-18T04:06:14;2.90;;;1.90;;
3066;SDS011;1544;48.834;9.194;2023-09-18T04:08:50;3.87;;;2.17;;
3066;SDS011;1544;48.834;9.194;2023-09-18T04:11:27;3.53;;;2.23;;
3066;SDS011;1544;48.834;9.194;2023-09-18T04:14:03;3.60;;;1.93;;
3066;SDS011;1544;48.834;9.194;2023-09-18T04:16:39;2.17;;;1.70;;
3066;SDS011;1544;48.834;9.194;2023-09-18T04:19:17;2.27;;;1.80;;
3066;SDS011;1544;48.834;9.194;2023-09-18T04:21:53;1.60;;;1.43;;
3066;SDS011;1544;48.834;9.194;2023-09-18T04:24:29;2.23;;;1.90;;
3066;SDS011;1544;48.834;9.194;2023-09-18T04:27:07;4.60;;;1.80;;
3066;SDS011;1544;48.834;9.194;2023-09-18T04:29:43;1.87;;;1.70;;
3066;SDS011;1544;48.834;9.194;2023-09-18T04:32:19;4.00;;;2.03;;
3066;SDS011;1544;48.834;9.194;2023-09-18T04:34:56;5.13;;;2.00;;
3066;SDS011;1544;48.834;9.194;2023-09-18T04:37:35;3.67;;;2.60;;
3066;SDS011;1544;48.834;9.194;2023-09-18T04:40:14;4.60;;;2.17;;
3066;SDS011;1544;48.834;9.194;2023-09-18T04:42:50;4.43;;;2.00;;
3066;SDS011;1544;48.834;9.194;2023-09-18T04:45:27;3.87;;;1.93;;
3066;SDS011;1544;48.834;9.194;2023-09-18T04:48:03;5.73;;;2.23;;
3066;SDS011;1544;48.834;9.194;2023-09-18T04:50:41;2.70;;;2.07;;
3066;SDS011;1544;48.834;9.194;2023-09-18T04:53:17;2.17;;;1.97;;
3066;SDS011;1544;48.834;9.194;2023-09-18T04:55:54;5.97;;;2.40;;
3066;SDS011;1544;48.834;9.194;2023-09-18T04:58:32;3.00;;;2.10;;
3066;SDS011;1544;48.834;9.194;2023-09-18T05:01:08;3.57;;;1.97;;
3066;SDS011;1544;48.834;9.194;2023-09-18T05:03:47;6.30;;;2.00;;
3066;SDS011;1544;48.834;9.194;2023-09-18T05:06:23;3.60;;;2.30;;
3066;SDS011;1544;48.834;9.194;2023-09-18T05:09:00;4.20;;;3.00;;
3066;SDS011;1544;48.834;9.194;2023-09-18T05:11:36;5.00;;;3.17;;
3066;SDS011;1544;48.834;9.194;2023-09-18T05:14:12;3.30;;;3.00;;
3066;SDS011;1544;48.834;9.194;2023-09-18T05:16:48;2.73;;;1.90;;
3066;SDS011;1544;48.834;9.194;2023-09-18T05:19:24;4.57;;;2.27;;
3066;SDS011;1544;48.834;9.194;2023-09-18T05:22:00;5.17;;;2.50;;
3066;SDS011;1544;48.834;9.194;2023-09-18T05:24:39;4.30;;;2.50;;
3066;SDS011;1544;48.834;9.194;2023-09-18T05:27:15;3.00;;;2.30;;
3066;SDS011;1544;48.834;9.194;2023-09-18T05:29:52;7.57;;;2.80;;
3066;SDS011;1544;48.834;9.194;2023-09-18T05:32:28;4.70;;;2.70;;
3066;SDS011;1544;48.834;9.194;2023-09-18T05:35:04;5.03;;;2.30;;
3066;SDS011;1544;48.834;9.194;2023-09-18T05:37:42;6.20;;;2.40;;
3066;SDS011;1544;48.834;9.194;2023-09-18T05:40:19;3.80;;;2.23;;
3066;SDS011;1544;48.834;9.194;2023-09-18T05:42:55;6.77;;;2.17;;
3066;SDS011;1544;48.834;9.194;2023-09-18T05:45:31;2.30;;;2.07;;
3066;SDS011;1544;48.834;9.194;2023-09-18T05:48:09;4.80;;;2.50;;
3066;SDS011;1544;48.834;9.194;2023-09-18T05:50:45;2.90;;;2.00;;
3066;SDS011;1544;48.834;9.194;2023-09-18T05:53:21;3.73;;;2.53;;
3066;SDS011;1544;48.834;9.194;2023-09-18T05:55:57;10.43;;;3.50;;
3066;SDS011;1544;48.834;9.194;2023-09-18T05:58:39;4.70;;;3.00;;
3066;SDS011;1544;48.834;9.194;2023-09-18T06:01:15;2.00;;;1.80;;
3066;SDS011;1544;48.834;9.194;2023-09-18T06:03:51;3.33;;;2.30;;
3066;SDS011;1544;48.834;9.194;2023-09-18T06:06:27;4.10;;;2.37;;
3066;SDS011;1544;48.834;9.194;2023-09-18T06:09:03;3.13;;;2.40;;
3066;SDS011;1544;48.834;9.194;2023-09-18T06:11:39;3.73;;;2.20;;
3066;SDS011;1544;48.834;9.194;2023-09-18T06:14:15;4.00;;;2.40;;
3066;SDS011;1544;48.834;9.194;2023-09-18T06:16:51;7.20;;;2.43;;
3066;SDS011;1544;48.834;9.194;2023-09-18T06:19:27;4.33;;;2.40;;
3066;SDS011;1544;48.834;9.194;2023-09-18T06:22:03;5.37;;;2.50;;
3066;SDS011;1544;48.834;9.194;2023-09-18T06:24:39;6.13;;;3.07;;
3066;SDS011;1544;48.834;9.194;2023-09-18T06:27:15;3.17;;;2.67;;
3066;SDS011;1544;48.834;9.194;2023-09-18T06:29:51;4.10;;;2.60;;
3066;SDS011;1544;48.834;9.194;2023-09-18T06:32:27;3.57;;;2.43;;
3066;SDS011;1544;48.834;9.194;2023-09-18T06:35:03;2.27;;;1.80;;
3066;SDS011;1544;48.834;9.194;2023-09-18T06:37:40;7.40;;;2.10;;
3066;SDS011;1544;48.834;9.194;2023-09-18T06:40:16;4.80;;;2.40;;
3066;SDS011;1544;48.834;9.194;2023-09-18T06:42:57;2.90;;;2.07;;
3066;SDS011;1544;48.834;9.194;2023-09-18T06:45:35;3.53;;;1.80;;
3066;SDS011;1544;48.834;9.194;2023-09-18T06:48:13;4.30;;;1.70;;
3066;SDS011;1544;48.834;9.194;2023-09-18T06:50:49;3.67;;;2.13;;
3066;SDS011;1544;48.834;9.194;2023-09-18T06:53:28;4.07;;;2.03;;
3066;SDS011;1544;48.834;9.194;2023-09-18T06:56:04;8.00;;;2.13;;
3066;SDS011;1544;48.834;9.194;2023-09-18T06:58:41;4.50;;;1.93;;
3066;SDS011;1544;48.834;9.194;2023-09-18T07:01:17;5.10;;;2.20;;
3066;SDS011;1544;48.834;9.194;2023-09-18T07:03:54;3.73;;;1.87;;
3066;SDS011;1544;48.834;9.194;2023-09-18T07:06:31;3.23;;;2.27;;
3066;SDS011;1544;48.834;9.194;2023-09-18T07:09:07;5.40;;;1.77;;
3066;SDS011;1544;48.834;9.194;2023-09-18T07:11:47;2.80;;;2.57;;
3066;SDS011;1544;48.834;9.194;2023-09-18T07:14:23;4.57;;;2.07;;
3066;SDS011;1544;48.834;9.194;2023-09-18T07:16:59;4.47;;;2.47;;
3066;SDS011;1544;48.834;9.194;2023-09-18T07:19:36;1.90;;;1.60;;
3066;SDS011;1544;48.834;9.194;2023-09-18T07:22:12;5.63;;;1.70;;
3066;SDS011;1544;48.834;9.194;2023-09-18T07:24:48;2.50;;;1.43;;
3066;SDS011;1544;48.834;9.194;2023-09-18T07:27:24;2.30;;;1.30;;
3066;SDS011;1544;48.834;9.194;2023-09-18T07:30:00;2.07;;;1.40;;
3066;SDS011;1544;48.834;9.194;2023-09-18T07:32:36;2.17;;;1.30;;
3066;SDS011;1544;48.834;9.194;2023-09-18T07:35:14;1.23;;;1.00;;
3066;SDS011;1544;48.834;9.194;2023-09-18T07:37:51;2.03;;;1.30;;
3066;SDS011;1544;48.834;9.194;2023-09-18T07:40:27;2.60;;;1.50;;
3066;SDS011;1544;48.834;9.194;2023-09-18T07:43:03;2.93;;;1.50;;
3066;SDS011;1544;48.834;9.194;2023-09-18T07:45:39;4.57;;;1.40;;
3066;SDS011;1544;48.834;9.194;2023-09-18T07:48:16;1.93;;;1.10;;
3066;SDS011;1544;48.834;9.194;2023-09-18T07:50:55;3.40;;;1.10;;
3066;SDS011;1544;48.834;9.194;2023-09-18T07:53:31;3.53;;;0.90;;
3066;SDS011;1544;48.834;9.194;2023-09-18T07:56:07;2.30;;;1.00;;
3066;SDS011;1544;48.834;9.194;2023-09-18T07:58:43;0.93;;;0.90;;
3066;SDS011;1544;48.834;9.194;2023-09-18T08:01:22;2.23;;;1.13;;
3066;SDS011;1544;48.834;9.194;2023-09-18T08:03:58;2.20;;;0.90;;
3066;SDS011;1544;48.834;9.194;2023-09-18T08:06:36;3.93;;;1.03;;
3066;SDS011;1544;48.834;9.194;2023-09-18T08:09:13;0.93;;;0.93;;
3066;SDS011;1544;48.834;9.194;2023-09-18T08:11:50;1.03;;;0.97;;
3066;SDS011;1544;48.834;9.194;2023-09-18T08:14:30;3.63;;;1.20;;
3066;SDS011;1544;48.834;9.194;2023-09-18T08:17:06;1.33;;;0.73;;
3066;SDS011;1544;48.834;9.194;2023-09-18T08:19:45;2.63;;;1.10;;
3066;SDS011;1544;48.834;9.194;2023-09-18T08:22:21;0.87;;;0.80;;
3066;SDS011;1544;48.834;9.194;2023-09-18T08:24:57;1.00;;;0.80;;
3066;SDS011;1544;48.834;9.194;2023-09-18T08:27:33;1.40;;;0.87;;
3066;SDS011;1544;48.834;9.194;2023-09-18T08:30:11;1.70;;;0.80;;
3066;SDS011;1544;48.834;9.194;2023-09-18T08:32:48;0.87;;;0.70;;
3066;SDS011;1544;48.834;9.194;2023-09-18T08:35:24;1.67;;;0.90;;
3066;SDS011;1544;48.834;9.194;2023-09-18T08:38:04;0.70;;;0.70;;
3066;SDS011;1544;48.834;9.194;2023-09-18T08:40:41;2.00;;;0.63;;
3066;SDS011;1544;48.834;9.194;2023-09-18T08:43:17;0.90;;;0.63;;
3066;SDS011;1544;48.834;9.194;2023-09-18T08:45:54;2.13;;;0.80;;
3066;SDS011;1544;48.834;9.194;2023-09-18T08:48:36;1.37;;;0.80;;
3066;SDS011;1544;48.834;9.194;2023-09-18T08:51:14;1.30;;;0.70;;
3066;SDS011;1544;48.834;9.194;2023-09-18T08:53:53;1.30;;;0.70;;
3066;SDS011;1544;48.834;9.194;2023-09-18T08:56:31;0.80;;;0.80;;
3066;SDS011;1544;48.834;9.194;2023-09-18T08:59:09;1.27;;;0.80;;
3066;SDS011;1544;48.834;9.194;2023-09-18T09:01:49;0.63;;;0.63;;
3066;SDS011;1544;48.834;9.194;2023-09-18T09:04:25;2.17;;;0.63;;
3066;SDS011;1544;48.834;9.194;2023-09-18T09:07:02;1.93;;;0.80;;
3066;SDS011;1544;48.834;9.194;2023-09-18T09:09:38;1.10;;;0.87;;
3066;SDS011;1544;48.834;9.194;2023-09-18T09:12:39;1.13;;;0.70;;
3066;SDS011;1544;48.834;9.194;2023-09-18T09:15:43;1.37;;;0.80;;
3066;SDS011;1544;48.834;9.194;2023-09-18T09:18:26;3.93;;;0.90;;
3066;SDS011;1544;48.834;9.194;2023-09-18T09:21:04;1.23;;;0.70;;
3066;SDS011;1544;48.834;9.194;2023-09-18T09:23:51;1.10;;;0.80;;
3066;SDS011;1544;48.834;9.194;2023-09-18T09:26:28;1.43;;;0.70;;
3066;SDS011;1544;48.834;9.194;2023-09-18T09:34:52;0.90;;;0.80;;
3066;SDS011;1544;48.834;9.194;2023-09-18T09:37:37;2.50;;;1.00;;
3066;SDS011;1544;48.834;9.194;2023-09-18T09:40:14;1.60;;;0.80;;
3066;SDS011;1544;48.834;9.194;2023-09-18T09:42:54;1.23;;;0.73;;
3066;SDS011;1544;48.834;9.194;2023-09-18T09:45:39;0.97;;;0.90;;
3066;SDS011;1544;48.834;9.194;2023-09-18T09:48:17;1.37;;;0.90;;
3066;SDS011;1544;48.834;9.194;2023-09-18T09:50:57;0.80;;;0.67;;
3066;SDS011;1544;48.834;9.194;2023-09-18T09:53:44;1.73;;;0.70;;
3066;SDS011;1544;48.834;9.194;2023-09-18T09:56:45;1.13;;;0.83;;
3066;SDS011;1544;48.834;9.194;2023-09-18T09:59:26;0.80;;;0.80;;
3066;SDS011;1544;48.834;9.194;2023-09-18T10:02:05;1.17;;;1.07;;
3066;SDS011;1544;48.834;9.194;2023-09-18T10:04:44;1.00;;;0.90;;
3066;SDS011;1544;48.834;9.194;2023-09-18T10:07:23;0.87;;;0.83;;
3066;SDS011;1544;48.834;9.194;2023-09-18T10:09:59;2.30;;;1.03;;
3066;SDS011;1544;48.834;9.194;2023-09-18T10:12:36;3.37;;;1.00;;
3066;SDS011;1544;48.834;9.194;2023-09-18T10:15:14;2.20;;;1.00;;
3066;SDS011;1544;48.834;9.194;2023-09-18T10:17:51;1.50;;;0.90;;
3066;SDS011;1544;48.834;9.194;2023-09-18T10:20:39;1.77;;;0.87;;
3066;SDS011;1544;48.834;9.194;2023-09-18T10:23:20;1.20;;;0.83;;
3066;SDS011;1544;48.834;9.194;2023-09-18T10:26:09;1.27;;;1.00;;
3066;SDS011;1544;48.834;9.194;2023-09-18T10:28:51;1.60;;;0.90;;
3066;SDS011;1544;48.834;9.194;2023-09-18T10:31:32;1.30;;;0.90;;
3066;SDS011;1544;48.834;9.194;2023-09-18T10:34:10;2.40;;;1.00;;
3066;SDS011;1544;48.834;9.194;2023-09-18T10:36:53;1.43;;;0.93;;
3066;SDS011;1544;48.834;9.194;2023-09-18T10:39:30;2.27;;;1.63;;
3066;SDS011;1544;48.834;9.194;2023-09-18T10:42:13;3.00;;;1.00;;
3066;SDS011;1544;48.834;9.194;2023-09-18T10:44:52;1.77;;;1.67;;
3066;SDS011;1544;48.834;9.194;2023-09-18T10:47:28;1.30;;;0.83;;
3066;SDS011;1544;48.834;9.194;2023-09-18T10:50:05;2.93;;;1.13;;
3066;SDS011;1544;48.834;9.194;2023-09-18T10:52:43;2.60;;;1.20;;
3066;SDS011;1544;48.834;9.194;2023-09-18T10:55:21;1.07;;;0.80;;
3066;SDS011;1544;48.834;9.194;2023-09-18T10:57:58;1.33;;;1.00;;
3066;SDS011;1544;48.834;9.194;2023-09-18T11:00:35;1.13;;;1.07;;
3066;SDS011;1544;48.834;9.194;2023-09-18T11:03:16;1.60;;;1.50;;
3066;SDS011;1544;48.834;9.194;2023-09-18T11:06:07;2.30;;;0.90;;
3066;SDS011;1544;48.834;9.194;2023-09-18T11:08:48;6.80;;;1.20;;
3066;SDS011;1544;48.834;9.194;2023-09-18T11:11:25;2.90;;;1.30;;
3066;SDS011;1544;48.834;9.194;2023-09-18T11:14:02;3.27;;;1.40;;
3066;SDS011;1544;48.834;9.194;2023-09-18T11:16:47;1.10;;;1.00;;
3066;SDS011;1544;48.834;9.194;2023-09-18T11:19:25;1.53;;;0.90;;
3066;SDS011;1544;48.834;9.194;2023-09-18T11:22:07;1.43;;;1.00;;
3066;SDS011;1544;48.834;9.194;2023-09-18T11:24:45;1.73;;;1.10;;
3066;SDS011;1544;48.834;9.194;2023-09-18T11:27:24;0.90;;;0.90;;
3066;SDS011;1544;48.834;9.194;2023-09-18T11:30:00;1.30;;;0.97;;
3066;SDS011;1544;48.834;9.194;2023-09-18T11:32:37;1.50;;;1.00;;
3066;SDS011;1544;48.834;9.194;2023-09-18T11:35:15;2.43;;;1.10;;
3066;SDS011;1544;48.834;9.194;2023-09-18T11:38:04;2.40;;;1.47;;
3066;SDS011;1544;48.834;9.194;2023-09-18T11:40:45;2.93;;;1.20;;
3066;SDS011;1544;48.834;9.194;2023-09-18T11:43:28;2.77;;;0.90;;
3066;SDS011;1544;48.834;9.194;2023-09-18T11:46:10;1.67;;;0.90;;
3066;SDS011;1544;48.834;9.194;2023-09-18T11:48:48;1.20;;;1.10;;
3066;SDS011;1544;48.834;9.194;2023-09-18T11:51:28;1.20;;;0.90;;
3066;SDS011;1544;48.834;9.194;2023-09-18T11:54:04;0.97;;;0.73;;
3066;SDS011;1544;48.834;9.194;2023-09-18T11:56:42;1.00;;;0.90;;
3066;SDS011;1544;48.834;9.194;2023-09-18T11:59:32;5.20;;;1.50;;
3066;SDS011;1544;48.834;9.194;2023-09-18T12:02:13;1.67;;;1.00;;
3066;SDS011;1544;48.834;9.194;2023-09-18T12:05:10;2.10;;;1.20;;
3066;SDS011;1544;48.834;9.194;2023-09-18T12:07:55;1.43;;;0.70;;
3066;SDS011;1544;48.834;9.194;2023-09-18T12:10:32;1.30;;;0.90;;
3066;SDS011;1544;48.834;9.194;2023-09-18T12:13:08;1.27;;;0.80;;
3066;SDS011;1544;48.834;9.194;2023-09-18T12:15:44;1.17;;;0.80;;
3066;SDS011;1544;48.834;9.194;2023-09-18T12:18:20;1.73;;;0.90;;
3066;SDS011;1544;48.834;9.194;2023-09-18T12:20:58;2.50;;;1.10;;
3066;SDS011;1544;48.834;9.194;2023-09-18T12:23:38;1.23;;;1.10;;
3066;SDS011;1544;48.834;9.194;2023-09-18T12:26:15;1.30;;;1.20;;
3066;SDS011;1544;48.834;9.194;2023-09-18T12:28:56;1.90;;;1.20;;
3066;SDS011;1544;48.834;9.194;2023-09-18T12:31:34;1.17;;;1.07;;
3066;SDS011;1544;48.834;9.194;2023-09-18T12:34:18;1.50;;;1.00;;
3066;SDS011;1544;48.834;9.194;2023-09-18T12:36:57;1.37;;;0.90;;
3066;SDS011;1544;48.834;9.194;2023-09-18T12:39:34;0.83;;;0.83;;
3066;SDS011;1544;48.834;9.194;2023-09-18T12:42:12;1.47;;;0.90;;
3066;SDS011;1544;48.834;9.194;2023-09-18T12:44:49;2.57;;;0.90;;
3066;SDS011;1544;48.834;9.194;2023-09-18T12:47:26;1.30;;;0.90;;
3066;SDS011;1544;48.834;9.194;2023-09-18T12:50:02;0.93;;;0.90;;
3066;SDS011;1544;48.834;9.194;2023-09-18T12:52:40;2.40;;;1.20;;
3066;SDS011;1544;48.834;9.194;2023-09-18T12:55:24;2.43;;;0.90;;
3066;SDS011;1544;48.834;9.194;2023-09-18T12:58:03;2.30;;;1.20;;
3066;SDS011;1544;48.834;9.194;2023-09-18T13:00:48;1.77;;;1.10;;
3066;SDS011;1544;48.834;9.194;2023-09-18T13:03:25;2.63;;;1.20;;
3066;SDS011;1544;48.834;9.194;2023-09-18T13:06:11;1.10;;;1.00;;
3066;SDS011;1544;48.834;9.194;2023-09-18T13:08:54;2.10;;;0.83;;
3066;SDS011;1544;48.834;9.194;2023-09-18T13:11:33;1.53;;;0.80;;
3066;SDS011;1544;48.834;9.194;2023-09-18T13:14:29;1.20;;;0.90;;
3066;SDS011;1544;48.834;9.194;2023-09-18T13:17:06;1.10;;;1.00;;
3066;SDS011;1544;48.834;9.194;2023-09-18T13:19:42;1.80;;;0.90;;
3066;SDS011;1544;48.834;9.194;2023-09-18T13:22:24;0.90;;;0.90;;
3066;SDS011;1544;48.834;9.194;2023-09-18T13:25:01;0.90;;;0.80;;
3066;SDS011;1544;48.834;9.194;2023-09-18T13:27:37;2.33;;;0.87;;
3066;SDS011;1544;48.834;9.194;2023-09-18T13:30:14;0.80;;;0.80;;
3066;SDS011;1544;48.834;9.194;2023-09-18T13:33:00;1.77;;;0.80;;
3066;SDS011;1544;48.834;9.194;2023-09-18T13:35:43;1.17;;;0.83;;
3066;SDS011;1544;48.834;9.194;2023-09-18T13:38:24;1.37;;;0.90;;
3066;SDS011;1544;48.834;9.194;2023-09-18T13:41:02;0.67;;;0.67;;
3066;SDS011;1544;48.834;9.194;2023-09-18T13:43:40;1.10;;;0.70;;
3066;SDS011;1544;48.834;9.194;2023-09-18T13:46:17;2.43;;;0.77;;
3066;SDS011;1544;48.834;9.194;2023-09-18T13:49:00;0.70;;;0.70;;
3066;SDS011;1544;48.834;9.194;2023-09-18T13:51:36;1.17;;;0.80;;
3066;SDS011;1544;48.834;9.194;2023-09-18T13:54:12;0.80;;;0.80;;
3066;SDS011;1544;48.834;9.194;2023-09-18T13:56:51;1.10;;;0.70;;
3066;SDS011;1544;48.834;9.194;2023-09-18T13:59:32;1.17;;;0.80;;
3066;SDS011;1544;48.834;9.194;2023-09-18T14:02:09;1.40;;;0.90;;
3066;SDS011;1544;48.834;9.194;2023-09-18T14:04:45;0.77;;;0.70;;
3066;SDS011;1544;48.834;9.194;2023-09-18T14:07:24;2.60;;;0.83;;
3066;SDS011;1544;48.834;9.194;2023-09-18T14:10:01;0.83;;;0.80;;
3066;SDS011;1544;48.834;9.194;2023-09-18T14:12:44;0.90;;;0.90;;
3066;SDS011;1544;48.834;9.194;2023-09-18T14:15:24;0.90;;;0.90;;
3066;SDS011;1544;48.834;9.194;2023-09-18T14:18:01;1.40;;;0.83;;
3066;SDS011;1544;48.834;9.194;2023-09-18T14:20:39;0.70;;;0.70;;
3066;SDS011;1544;48.834;9.194;2023-09-18T14:23:17;0.80;;;0.80;;
3066;SDS011;1544;48.834;9.194;2023-09-18T14:25:53;2.03;;;0.80;;
3066;SDS011;1544;48.834;9.194;2023-09-18T14:28:29;0.73;;;0.73;;
3066;SDS011;1544;48.834;9.194;2023-09-18T14:31:08;1.33;;;0.70;;
3066;SDS011;1544;48.834;9.194;2023-09-18T14:33:44;0.80;;;0.80;;
3066;SDS011;1544;48.834;9.194;2023-09-18T14:36:20;1.67;;;0.73;;
3066;SDS011;1544;48.834;9.194;2023-09-18T14:38:56;3.33;;;0.80;;
3066;SDS011;1544;48.834;9.194;2023-09-18T14:41:34;1.60;;;0.70;;
3066;SDS011;1544;48.834;9.194;2023-09-18T14:44:11;1.37;;;0.73;;
3066;SDS011;1544;48.834;9.194;2023-09-18T14:46:47;2.50;;;0.80;;
3066;SDS011;1544;48.834;9.194;2023-09-18T14:49:23;0.93;;;0.70;;
3066;SDS011;1544;48.834;9.194;2023-09-18T14:51:59;1.70;;;0.80;;
3066;SDS011;1544;48.834;9.194;2023-09-18T14:54:35;0.70;;;0.70;;
3066;SDS011;1544;48.834;9.194;2023-09-18T14:57:12;0.90;;;0.87;;
3066;SDS011;1544;48.834;9.194;2023-09-18T14:59:48;1.30;;;0.87;;
3066;SDS011;1544;48.834;9.194;2023-09-18T15:02:24;1.03;;;0.77;;
3066;SDS011;1544;48.834;9.194;2023-09-18T15:05:05;1.50;;;0.63;;
3066;SDS011;1544;48.834;9.194;2023-09-18T15:07:44;0.90;;;0.70;;
3066;SDS011;1544;48.834;9.194;2023-09-18T15:10:20;1.93;;;0.80;;
3066;SDS011;1544;48.834;9.194;2023-09-18T15:12:56;0.77;;;0.60;;
3066;SDS011;1544;48.834;9.194;2023-09-18T15:15:32;1.00;;;0.87;;
3066;SDS011;1544;48.834;9.194;2023-09-18T15:18:08;0.77;;;0.70;;
3066;SDS011;1544;48.834;9.194;2023-09-18T15:20:44;0.77;;;0.60;;
3066;SDS011;1544;48.834;9.194;2023-09-18T15:23:24;1.17;;;0.63;;
3066;SDS011;1544;48.834;9.194;2023-09-18T15:26:00;1.30;;;0.80;;
3066;SDS011;1544;48.834;9.194;2023-09-18T15:28:36;0.97;;;0.77;;
3066;SDS011;1544;48.834;9.194;2023-09-18T15:31:12;1.33;;;0.70;;
3066;SDS011;1544;48.834;9.194;2023-09-18T15:33:48;0.77;;;0.63;;
3066;SDS011;1544;48.834;9.194;2023-09-18T15:36:24;2.30;;;0.80;;
3066;SDS011;1544;48.834;9.194;2023-09-18T15:39:00;0.80;;;0.60;;
3066;SDS011;1544;48.834;9.194;2023-09-18T15:41:38;1.33;;;0.70;;
3066;SDS011;1544;48.834;9.194;2023-09-18T15:44:14;0.60;;;0.60;;
3066;SDS011;1544;48.834;9.194;2023-09-18T15:46:50;0.90;;;0.80;;
3066;SDS011;1544;48.834;9.194;2023-09-18T15:49:26;1.20;;;0.90;;
3066;SDS011;1544;48.834;9.194;2023-09-18T15:52:02;1.30;;;1.17;;
3066;SDS011;1544;48.834;9.194;2023-09-18T15:54:38;1.50;;;1.30;;
3066;SDS011;1544;48.834;9.194;2023-09-18T15:57:15;3.23;;;1.23;;
3066;SDS011;1544;48.834;9.194;2023-09-18T15:59:52;1.50;;;1.00;;
3066;SDS011;1544;48.834;9.194;2023-09-18T16:02:28;2.00;;;0.90;;
3066;SDS011;1544;48.834;9.194;2023-09-18T16:05:04;3.20;;;0.70;;
3066;SDS011;1544;48.834;9.194;2023-09-18T16:07:41;1.00;;;0.90;;
3066;SDS011;1544;48.834;9.194;2023-09-18T16:10:17;0.73;;;0.67;;
3066;SDS011;1544;48.834;9.194;2023-09-18T16:12:53;0.93;;;0.73;;
3066;SDS011;1544;48.834;9.194;2023-09-18T16:15:29;1.53;;;0.90;;
3066;SDS011;1544;48.834;9.194;2023-09-18T16:18:05;1.33;;;0.70;;
3066;SDS011;1544;48.834;9.194;2023-09-18T16:20:41;1.30;;;0.80;;
3066;SDS011;1544;48.834;9.194;2023-09-18T16:23:17;1.70;;;0.90;;
3066;SDS011;1544;48.834;9.194;2023-09-18T16:25:53;0.77;;;0.73;;
3066;SDS011;1544;48.834;9.194;2023-09-18T16:28:29;4.30;;;0.80;;
3066;SDS011;1544;48.834;9.194;2023-09-18T16:31:05;1.10;;;1.00;;